Time;durP1;ratioP1;P1;durP2;ratioP2;P2;SDS_P1;SDS_P2;PMS_P1;PMS_P2;Temp;Humidity;BMP_temperature;BMP_pressure;BME280_temperature;BME280_humidity;BME280_pressure;Samples;Min_cycle;Max_cycle;Signal;HPM_P1;HPM_P2
2021/01/29 00:07:21;;;;;;;16.90;10.43;;;;;;;-5.39;82.92;97846.90;510531;1101;115321;-67
2021/01/29 00:17:25;;;;;;;17.00;10.97;;;;;;;-5.59;83.30;97846.63;510387;1102;114439;-67
2021/01/29 00:27:30;;;;;;;17.17;9.70;;;;;;;-5.73;83.54;97852.09;510459;1102;115039;-67
2021/01/29 00:37:33;;;;;;;17.40;9.30;;;;;;;-5.82;83.79;97840.39;510569;1102;114584;-66
2021/01/29 00:47:38;;;;;;;14.17;8.77;;;;;;;-5.90;83.71;97858.45;510615;1101;114748;-67
2021/01/29 00:57:42;;;;;;;15.00;8.53;;;;;;;-5.99;83.36;97869.76;510702;1102;115043;-66
2021/01/29 01:07:46;;;;;;;16.35;9.50;;;;;;;-6.09;83.38;97883.66;510331;1102;114205;-66
2021/01/29 01:17:52;;;;;;;15.10;9.00;;;;;;;-5.93;84.26;97879.84;510701;1102;114910;-67
2021/01/29 01:27:57;;;;;;;18.20;9.05;;;;;;;-5.69;83.61;97879.25;511014;1102;115191;-66
2021/01/29 01:38:02;;;;;;;11.90;7.05;;;;;;;-5.45;84.05;97876.92;510611;1101;114789;-67
2021/01/29 01:48:10;;;;;;;14.67;7.73;;;;;;;-5.17;83.61;97876.20;510536;1101;115496;-67
2021/01/29 01:58:14;;;;;;;12.30;7.33;;;;;;;-4.99;83.67;97873.09;512831;1102;114520;-67
2021/01/29 02:08:18;;;;;;;11.67;7.57;;;;;;;-4.88;84.42;97877.92;510863;1102;114721;-66
2021/01/29 02:18:31;;;;;;;11.23;6.57;;;;;;;-4.81;82.84;97876.02;510991;1102;114962;-67
2021/01/29 02:28:58;;;;;;;11.67;7.37;;;;;;;-4.73;83.82;97879.20;511028;1102;115287;-66
2021/01/29 02:39:25;;;;;;;9.73;6.37;;;;;;;-4.57;83.52;97881.30;510974;1102;114533;-66
2021/01/29 02:49:42;;;;;;;12.03;5.63;;;;;;;-4.40;83.40;97870.54;511015;1101;115308;-66
2021/01/29 02:59:57;;;;;;;6.23;3.53;;;;;;;-4.27;84.00;97848.77;510980;1102;115163;-67
2021/01/29 03:10:09;;;;;;;7.20;4.20;;;;;;;-4.18;83.36;97852.75;511069;1101;115755;-67
2021/01/29 03:20:23;;;;;;;5.17;3.67;;;;;;;-4.05;82.02;97857.47;511164;1101;114441;-66
2021/01/29 03:30:32;;;;;;;8.80;4.00;;;;;;;-4.01;82.21;97849.64;510759;1102;115276;-67
2021/01/29 03:40:39;;;;;;;7.50;4.00;;;;;;;-3.96;82.67;97834.95;510795;1102;115334;-67
2021/01/29 03:50:51;;;;;;;6.53;3.80;;;;;;;-3.89;81.83;97833.02;511053;1102;115117;-65
2021/01/29 04:01:02;;;;;;;6.20;3.13;;;;;;;-3.82;81.93;97843.91;511255;1102;113922;-67
2021/01/29 04:11:11;;;;;;;5.07;3.43;;;;;;;-3.78;82.27;97854.91;510805;1102;115244;-67
2021/01/29 04:21:20;;;;;;;8.20;4.37;;;;;;;-3.74;82.04;97854.75;510815;1102;113778;-66
2021/01/29 04:31:27;;;;;;;4.10;3.13;;;;;;;-3.70;81.02;97850.33;511100;1101;114600;-67
2021/01/29 04:41:49;;;;;;;3.53;3.03;;;;;;;-3.74;81.11;97847.06;511068;1102;113923;-67
2021/01/29 04:52:22;;;;;;;4.63;2.60;;;;;;;-3.67;80.84;97863.08;510924;1102;115204;-69
2021/01/29 05:02:50;;;;;;;4.00;3.10;;;;;;;-3.64;81.37;97869.81;510938;1102;114830;-68
2021/01/29 05:13:22;;;;;;;4.53;3.80;;;;;;;-3.63;81.00;97871.52;510982;1102;113828;-66
2021/01/29 05:23:48;;;;;;;5.33;2.97;;;;;;;-3.56;81.15;97863.55;510736;1101;114730;-67
2021/01/29 05:34:18;;;;;;;3.87;3.27;;;;;;;-3.55;80.95;97867.78;510948;1102;114479;-65
2021/01/29 05:44:52;;;;;;;5.05;2.90;;;;;;;-3.59;80.42;97861.06;510710;1100;113741;-66
2021/01/29 05:55:17;;;;;;;4.70;2.57;;;;;;;-3.63;79.82;97862.08;510848;1102;115804;-66
2021/01/29 06:06:05;;;;;;;4.70;2.90;;;;;;;-3.67;79.77;97856.20;510930;1102;114749;-66
2021/01/29 06:16:23;;;;;;;;;;;;;;;-3.66;79.47;97852.74;510567;1102;114143;-66
2021/01/29 06:26:57;;;;;;;3.93;2.70;;;;;;;-3.64;80.30;97842.44;510906;1101;101162;-67
2021/01/29 06:37:15;;;;;;;3.33;2.58;;;;;;;-3.60;80.24;97858.58;510968;1102;114697;-68
2021/01/29 06:47:34;;;;;;;4.30;3.50;;;;;;;-3.58;80.17;97847.38;511078;1102;115518;-68
2021/01/29 06:58:04;;;;;;;4.27;3.27;;;;;;;-3.60;79.56;97843.17;510799;1102;114820;-67
2021/01/29 07:08:21;;;;;;;5.47;3.10;;;;;;;-3.58;80.16;97847.38;511038;1102;116530;-65
2021/01/29 07:19:01;;;;;;;6.03;4.87;;;;;;;-3.59;79.95;97847.41;510655;1102;114193;-66
2021/01/29 07:29:25;;;;;;;5.20;4.70;;;;;;;-3.49;79.34;97850.48;510338;1102;113821;-69
2021/01/29 07:39:46;;;;;;;4.87;3.20;;;;;;;-3.45;80.03;97837.50;510442;1102;113926;-67
2021/01/29 07:50:05;;;;;;;5.90;3.40;;;;;;;-3.38;79.58;97818.44;510800;1102;113813;-67
2021/01/29 08:00:25;;;;;;;8.83;4.60;;;;;;;-3.23;79.87;97808.50;510859;1102;114461;-64
2021/01/29 08:10:33;;;;;;;7.33;3.73;;;;;;;-3.12;79.04;97796.09;510866;1102;114212;-62
2021/01/29 08:21:01;;;;;;;5.67;4.20;;;;;;;-2.94;79.38;97780.91;510643;1102;113788;-63
2021/01/29 08:31:43;;;;;;;3.95;3.50;;;;;;;-2.92;78.86;97780.83;501844;1102;10001490;-66
2021/01/29 08:41:59;;;;;;;4.47;3.50;;;;;;;-2.96;78.18;97787.81;510341;1102;114109;-63
2021/01/29 08:52:13;;;;;;;3.43;2.97;;;;;;;-2.99;77.85;97791.36;510458;1102;115578;-62
2021/01/29 09:02:35;;;;;;;3.83;2.70;;;;;;;-2.96;77.92;97788.66;511211;1102;113750;-60
2021/01/29 09:12:40;;;;;;;3.27;3.03;;;;;;;-2.90;77.40;97784.17;501620;1101;10001504;-65
2021/01/29 09:22:52;;;;;;;4.67;3.47;;;;;;;-2.80;77.88;97790.63;520277;1102;114448;-65
2021/01/29 09:33:10;;;;;;;3.77;2.73;;;;;;;-2.62;77.37;97778.80;510629;1102;114084;-66
2021/01/29 09:43:25;;;;;;;4.00;3.13;;;;;;;-2.43;77.38;97771.18;510171;1102;113893;-65
2021/01/29 09:53:33;;;;;;;5.43;3.67;;;;;;;-2.30;76.87;97760.42;510739;1102;114982;-65
2021/01/29 10:03:50;;;;;;;6.25;4.40;;;;;;;-2.12;76.54;97746.78;510793;1102;176159;-62
2021/01/29 10:14:06;;;;;;;3.57;3.30;;;;;;;-2.33;75.71;97758.81;510912;1101;114225;-63
2021/01/29 10:24:17;;;;;;;4.10;2.65;;;;;;;-2.36;76.43;97761.52;511049;1102;114363;-61
2021/01/29 10:34:37;;;;;;;4.67;3.10;;;;;;;-2.42;76.12;97760.03;510737;1102;114387;-62
2021/01/29 10:44:42;;;;;;;3.37;3.07;;;;;;;-2.32;75.69;97757.91;510974;1102;114960;-63
2021/01/29 10:54:48;;;;;;;5.35;3.55;;;;;;;-2.31;75.41;97762.14;510516;1102;113943;-59
2021/01/29 11:04:58;;;;;;;4.23;3.20;;;;;;;-2.50;75.17;97758.64;510473;1100;113806;-65
2021/01/29 11:15:12;;;;;;;4.43;3.00;;;;;;;-2.48;75.77;97754.27;510343;1102;115380;-64
2021/01/29 11:25:47;;;;;;;3.70;3.35;;;;;;;-2.22;75.57;97745.50;510451;1101;114732;-64
2021/01/29 11:36:00;;;;;;;4.58;3.33;;;;;;;-2.05;75.04;97746.54;510768;1102;114196;-61
2021/01/29 11:46:17;;;;;;;5.30;3.13;;;;;;;-2.05;74.37;97729.36;510162;1102;114179;-62
2021/01/29 11:56:26;;;;;;;4.47;3.67;;;;;;;-2.04;74.67;97713.02;510192;1102;114914;-60
2021/01/29 12:06:36;;;;;;;5.13;4.53;;;;;;;-2.10;74.04;97690.16;511262;1101;113642;-63
2021/01/29 12:16:41;;;;;;;9.60;5.77;;;;;;;-2.19;74.52;97687.97;511173;1102;114860;-69
2021/01/29 12:26:52;;;;;;;5.60;5.00;;;;;;;-2.29;74.12;97678.07;510931;1102;113950;-66
2021/01/29 12:37:05;;;;;;;10.90;7.50;;;;;;;-2.23;74.38;97679.55;511208;1102;115469;-60
2021/01/29 12:47:25;;;;;;;9.20;6.97;;;;;;;-2.04;74.13;97669.30;510712;1102;114003;-60
2021/01/29 12:57:32;;;;;;;7.77;6.97;;;;;;;-1.90;74.07;97662.73;510636;1101;114236;-62
2021/01/29 13:07:50;;;;;;;7.35;6.65;;;;;;;-1.87;73.63;97665.16;511404;1102;114810;-62
2021/01/29 13:18:03;;;;;;;8.00;7.20;;;;;;;-1.94;73.15;97656.88;511456;1101;113838;-63
2021/01/29 13:28:14;;;;;;;8.47;7.37;;;;;;;-2.16;73.58;97657.82;511074;1102;113781;-61
2021/01/29 13:38:30;;;;;;;8.50;7.43;;;;;;;-2.06;73.43;97642.81;510989;1102;114017;-59
2021/01/29 13:48:36;;;;;;;12.77;9.70;;;;;;;-2.09;73.09;97640.38;502079;1102;10003223;-59
2021/01/29 13:58:46;;;;;;;15.50;11.40;;;;;;;-2.27;72.82;97652.30;510628;1101;115420;-62
2021/01/29 14:08:50;;;;;;;16.40;11.83;;;;;;;-2.44;73.23;97637.60;510244;1101;116006;-63
2021/01/29 14:19:02;;;;;;;15.63;11.70;;;;;;;-2.46;73.65;97626.55;510451;1102;114680;-62
2021/01/29 14:29:16;;;;;;;20.50;14.73;;;;;;;-2.54;73.57;97621.71;510336;1101;114919;-61
2021/01/29 14:39:44;;;;;;;17.13;13.23;;;;;;;-2.79;73.57;97609.08;510341;1102;115214;-63
2021/01/29 14:50:14;;;;;;;17.83;13.97;;;;;;;-3.17;73.82;97612.31;510287;1102;114708;-64
2021/01/29 15:00:35;;;;;;;14.17;12.33;;;;;;;-3.53;73.69;97608.55;509878;1102;114653;-69
2021/01/29 15:10:41;;;;;;;31.75;19.35;;;;;;;-3.83;74.60;97604.53;511334;1102;115111;-69
2021/01/29 15:20:48;;;;;;;49.05;28.60;;;;;;;-4.11;74.32;97612.41;511046;1101;114173;-64
2021/01/29 15:30:52;;;;;;;49.10;29.80;;;;;;;-4.29;75.07;97617.32;511174;1102;114281;-60
2021/01/29 15:40:56;;;;;;;53.93;31.47;;;;;;;-4.42;75.18;97621.21;510698;1102;114077;-67
2021/01/29 15:51:05;;;;;;;53.20;33.07;;;;;;;-4.61;76.21;97615.89;510766;1102;114658;-66
2021/01/29 16:01:22;;;;;;;41.30;26.10;;;;;;;-4.81;76.67;97613.09;510885;1102;114244;-71
2021/01/29 16:11:29;;;;;;;41.83;28.60;;;;;;;-5.03;76.88;97610.42;510870;1102;114669;-69
2021/01/29 16:21:35;;;;;;;55.13;30.23;;;;;;;-5.19;75.99;97612.63;510896;1102;114331;-65
2021/01/29 16:31:45;;;;;;;58.83;34.30;;;;;;;-5.33;77.39;97604.57;510758;1102;114645;-66
2021/01/29 16:41:50;;;;;;;57.40;32.77;;;;;;;-5.43;77.32;97604.85;510784;1101;114356;-63
2021/01/29 16:51:59;;;;;;;56.00;34.30;;;;;;;-5.49;76.53;97608.44;510650;1102;114294;-63
2021/01/29 17:02:10;;;;;;;46.73;29.43;;;;;;;-5.45;77.66;97606.63;510900;1101;114346;-62
2021/01/29 17:12:19;;;;;;;44.27;25.37;;;;;;;-5.44;77.83;97605.73;509922;1102;115215;-61
2021/01/29 17:22:27;;;;;;;46.60;26.80;;;;;;;-5.37;77.51;97598.70;510518;1102;114664;-61
2021/01/29 17:32:35;;;;;;;58.00;34.77;;;;;;;-5.32;78.22;97608.80;510773;1101;114681;-61
2021/01/29 17:42:43;;;;;;;42.83;27.10;;;;;;;-5.31;77.91;97595.97;510561;1102;115267;-69
2021/01/29 17:52:49;;;;;;;44.80;25.63;;;;;;;-5.30;78.72;97597.64;510280;1102;114260;-68
2021/01/29 18:03:03;;;;;;;40.98;24.92;;;;;;;-5.37;77.46;97584.20;510534;1102;114790;-65
2021/01/29 18:13:12;;;;;;;53.87;32.33;;;;;;;-5.38;77.78;97576.57;510494;1102;114773;-66
2021/01/29 18:23:22;;;;;;;47.47;28.67;;;;;;;-5.39;78.66;97564.67;510281;1102;114367;-61
2021/01/29 18:33:32;;;;;;;49.53;29.37;;;;;;;-5.45;78.09;97568.25;510639;1102;114280;-65
2021/01/29 18:43:36;;;;;;;44.33;24.70;;;;;;;-5.55;78.05;97567.69;510419;1102;114720;-62
2021/01/29 18:53:41;;;;;;;48.37;27.10;;;;;;;-5.62;78.07;97579.83;510546;1102;114621;-63
2021/01/29 19:03:47;;;;;;;47.87;25.17;;;;;;;-5.63;78.20;97578.16;510922;1102;114341;-64
2021/01/29 19:13:52;;;;;;;40.50;23.40;;;;;;;-5.62;78.30;97579.83;510650;1102;114228;-62
2021/01/29 19:23:57;;;;;;;43.50;25.33;;;;;;;-5.62;78.64;97569.60;510936;1101;114677;-63
2021/01/29 19:34:01;;;;;;;81.30;43.80;;;;;;;-5.58;79.13;97566.97;510713;1102;114694;-65
2021/01/29 19:44:08;;;;;;;46.70;27.77;;;;;;;-5.58;78.82;97569.53;510648;1102;115019;-67
2021/01/29 19:54:13;;;;;;;47.23;28.83;;;;;;;-5.57;79.30;97568.64;510476;1102;115142;-62
2021/01/29 20:04:17;;;;;;;39.65;25.35;;;;;;;-5.64;78.78;97565.45;511205;1101;115026;-60
2021/01/29 20:14:21;;;;;;;45.47;25.47;;;;;;;-5.75;79.09;97559.83;510720;1102;114482;-60
2021/01/29 20:24:25;;;;;;;47.95;27.60;;;;;;;-5.83;78.25;97562.59;510037;1102;114348;-65
2021/01/29 20:34:29;;;;;;;75.40;37.43;;;;;;;-5.73;78.23;97568.28;522685;1101;114736;-65
2021/01/29 20:44:33;;;;;;;85.20;43.70;;;;;;;-5.60;78.58;97579.80;510803;1102;114418;-66
2021/01/29 20:54:37;;;;;;;99.63;48.57;;;;;;;-5.46;79.14;97566.59;510991;1101;114258;-66
2021/01/29 21:04:42;;;;;;;154.70;79.27;;;;;;;-5.39;78.89;97568.05;511020;1102;115228;-69
2021/01/29 21:14:47;;;;;;;124.45;67.75;;;;;;;-5.40;78.54;97578.34;511261;1102;114481;-67
2021/01/29 21:24:51;;;;;;;177.70;91.77;;;;;;;-5.40;78.58;97586.84;511099;1102;115647;-64
2021/01/29 21:34:57;;;;;;;137.83;78.10;;;;;;;-5.40;80.00;97570.67;511043;1102;114417;-66
2021/01/29 21:45:02;;;;;;;116.37;65.03;;;;;;;-5.49;78.77;97566.66;510868;1101;115432;-65
2021/01/29 21:55:08;;;;;;;106.73;60.60;;;;;;;-5.62;79.48;97574.72;511159;1101;114505;-66
2021/01/29 22:05:15;;;;;;;100.75;58.30;;;;;;;-5.76;78.96;97566.64;511028;1102;114446;-65
2021/01/29 22:15:22;;;;;;;94.57;49.17;;;;;;;-5.76;79.83;97576.87;510787;1102;115216;-66
2021/01/29 22:25:26;;;;;;;81.00;45.30;;;;;;;-5.74;79.84;97569.98;510820;1102;115268;-66
2021/01/29 22:35:33;;;;;;;69.72;39.60;;;;;;;-5.66;79.04;97577.41;510685;1102;115311;-66
2021/01/29 22:45:38;;;;;;;74.87;42.17;;;;;;;-5.64;78.70;97583.34;510962;1101;114317;-64
2021/01/29 22:55:43;;;;;;;48.90;28.20;;;;;;;-5.70;79.20;97560.50;510855;1102;114381;-66
2021/01/29 23:05:47;;;;;;;58.20;33.50;;;;;;;-5.63;79.62;97573.05;510849;1102;115828;-65
2021/01/29 23:15:51;;;;;;;50.10;28.53;;;;;;;-5.52;79.92;97577.00;510854;1101;114255;-66
2021/01/29 23:25:55;;;;;;;49.87;29.37;;;;;;;-5.40;79.79;97550.20;510771;1102;114607;-65
2021/01/29 23:35:59;;;;;;;52.17;30.90;;;;;;;-5.26;79.00;97554.85;510736;1102;114261;-66
2021/01/29 23:46:03;;;;;;;45.50;27.90;;;;;;;-5.22;78.96;97530.86;510720;1102;115788;-64
2021/01/29 23:56:08;;;;;;;51.07;27.33;;;;;;;-5.20;79.39;97539.31;510947;1102;114305;-66
